createdAt,value
2022-07-29T00:01:41.450Z,101091.72
2022-07-29T00:04:08.022Z,101093.38
2022-07-29T00:06:34.506Z,101089.72
2022-07-29T00:09:00.957Z,101090.50
2022-07-29T00:11:27.352Z,101094.50
2022-07-29T00:13:56.493Z,101101.75
2022-07-29T00:16:22.918Z,101099.75
2022-07-29T00:18:49.295Z,101104.16
2022-07-29T00:21:16.638Z,101099.78
2022-07-29T00:23:43.045Z,101102.56
2022-07-29T00:26:10.317Z,101106.94
2022-07-29T00:28:36.709Z,101098.91
2022-07-29T00:31:03.121Z,101104.50
2022-07-29T00:33:29.646Z,101101.34
2022-07-29T00:35:56.025Z,101112.91
2022-07-29T00:38:23.672Z,101103.72
2022-07-29T00:40:50.052Z,101110.94
2022-07-29T00:43:17.341Z,101099.75
2022-07-29T00:45:43.703Z,101097.75
2022-07-29T00:48:10.073Z,101091.38
2022-07-29T00:50:36.447Z,101088.94
2022-07-29T00:53:02.792Z,101094.53
2022-07-29T00:55:29.242Z,101094.97
2022-07-29T00:57:55.599Z,101096.53
2022-07-29T01:00:21.965Z,101097.78
2022-07-29T01:02:48.339Z,101097.38
2022-07-29T01:05:14.683Z,101094.19
2022-07-29T01:07:41.111Z,101099.38
2022-07-29T01:10:07.488Z,101102.59
2022-07-29T01:12:33.845Z,101098.59
2022-07-29T01:15:00.202Z,101092.22
2022-07-29T01:17:26.582Z,101097.38
2022-07-29T01:19:52.964Z,101091.41
2022-07-29T01:22:19.331Z,101097.44
2022-07-29T01:24:45.684Z,101101.00
2022-07-29T01:27:12.913Z,101098.22
2022-07-29T01:29:42.702Z,101092.66
2022-07-29T01:32:27.890Z,101099.78
2022-07-29T01:34:55.513Z,101101.41
2022-07-29T01:37:21.860Z,101104.22
2022-07-29T01:39:48.229Z,101100.22
2022-07-29T01:42:15.498Z,101095.41
2022-07-29T01:44:41.865Z,101102.63
2022-07-29T01:47:08.238Z,101107.38
2022-07-29T01:49:34.576Z,101102.22
2022-07-29T01:52:00.945Z,101097.81
2022-07-29T01:54:27.300Z,101107.41
2022-07-29T01:56:54.549Z,101116.94
2022-07-29T01:59:20.921Z,101106.56
2022-07-29T02:01:47.579Z,101104.19
2022-07-29T02:04:14.217Z,101107.78
2022-07-29T02:06:56.514Z,101106.19
2022-07-29T02:09:22.861Z,101106.97
2022-07-29T02:11:49.221Z,101108.19
2022-07-29T02:14:15.919Z,101101.41
2022-07-29T02:16:42.494Z,101099.78
2022-07-29T02:19:08.900Z,101104.19
2022-07-29T02:21:35.258Z,101102.22
2022-07-29T02:24:01.621Z,101099.81
2022-07-29T02:26:27.994Z,101101.41
2022-07-29T02:28:54.367Z,101098.63
2022-07-29T02:31:20.774Z,101100.63
2022-07-29T02:33:47.188Z,101105.81
2022-07-29T02:36:13.548Z,101098.63
2022-07-29T02:38:39.927Z,101099.84
2022-07-29T02:41:06.304Z,101100.63
2022-07-29T02:43:32.684Z,101094.25
2022-07-29T02:45:59.058Z,101104.97
2022-07-29T02:48:25.405Z,101102.16
2022-07-29T02:50:51.771Z,101101.78
2022-07-29T02:53:19.090Z,101103.72
2022-07-29T02:55:45.455Z,101100.91
2022-07-29T02:58:12.684Z,101103.63
2022-07-29T03:00:39.055Z,101100.78
2022-07-29T03:03:05.444Z,101102.81
2022-07-29T03:05:31.806Z,101109.16
2022-07-29T03:07:58.215Z,101103.66
2022-07-29T03:10:24.652Z,101111.28
2022-07-29T03:12:51.036Z,101112.09
2022-07-29T03:15:20.188Z,101098.16
2022-07-29T03:17:46.646Z,101102.88
2022-07-29T03:20:13.130Z,101110.06
2022-07-29T03:22:40.541Z,101106.00
2022-07-29T03:25:06.991Z,101102.88
2022-07-29T03:27:33.543Z,101116.41
2022-07-29T03:29:59.996Z,101122.84
2022-07-29T03:32:26.430Z,101116.50
2022-07-29T03:34:55.952Z,101122.88
2022-07-29T03:37:22.700Z,101113.75
2022-07-29T03:39:49.261Z,101109.00
2022-07-29T03:42:15.701Z,101112.53
2022-07-29T03:44:42.120Z,101104.97
2022-07-29T03:47:09.387Z,101107.25
2022-07-29T03:52:02.049Z,101106.13
2022-07-29T03:54:28.426Z,101113.38
2022-07-29T03:56:54.795Z,101114.97
2022-07-29T03:59:21.145Z,101104.59
2022-07-29T04:01:47.610Z,101109.78
2022-07-29T04:04:14.397Z,101113.38
2022-07-29T04:06:40.924Z,101122.13
2022-07-29T04:09:07.305Z,101121.34
2022-07-29T04:12:02.556Z,101114.94
2022-07-29T04:14:22.730Z,101110.97
2022-07-29T04:16:49.075Z,101115.75
2022-07-29T04:19:15.456Z,101106.19
2022-07-29T04:21:41.821Z,101120.16
2022-07-29T04:24:08.167Z,101120.53
2022-07-29T04:26:34.557Z,101116.16
2022-07-29T04:29:00.952Z,101118.13
2022-07-29T04:31:27.352Z,101109.41
2022-07-29T04:33:53.743Z,101117.34
2022-07-29T04:36:29.427Z,101118.16
2022-07-29T04:38:56.336Z,101119.75
2022-07-29T04:41:22.743Z,101126.50
2022-07-29T04:43:49.676Z,101120.94
2022-07-29T04:46:16.245Z,101120.13
2022-07-29T04:48:42.696Z,101116.94
2022-07-29T04:51:09.097Z,101124.50
2022-07-29T04:53:35.520Z,101130.88
2022-07-29T04:56:01.857Z,101125.69
2022-07-29T04:58:28.203Z,101125.69
2022-07-29T05:00:54.580Z,101126.50
2022-07-29T05:03:20.906Z,101128.88
2022-07-29T05:05:50.065Z,101122.47
2022-07-29T05:08:16.419Z,101125.28
2022-07-29T05:10:42.895Z,101118.50
2022-07-29T05:13:09.273Z,101122.06
2022-07-29T05:15:35.690Z,101120.09
2022-07-29T05:18:02.094Z,101122.06
2022-07-29T05:20:28.436Z,101136.44
2022-07-29T05:22:54.790Z,101132.81
2022-07-29T05:25:21.131Z,101128.06
2022-07-29T05:27:47.962Z,101144.06
2022-07-29T05:30:17.607Z,101134.41
2022-07-29T05:32:44.201Z,101139.16
2022-07-29T05:35:10.814Z,101135.41
2022-07-29T05:37:40.297Z,101143.78
2022-07-29T05:40:06.948Z,101143.94
2022-07-29T05:42:33.321Z,101136.38
2022-07-29T05:44:59.707Z,101128.91
2022-07-29T05:47:26.066Z,101136.88
2022-07-29T05:49:52.441Z,101126.53
2022-07-29T05:52:18.789Z,101126.50
2022-07-29T05:54:45.130Z,101122.88
2022-07-29T05:57:11.519Z,101126.41
2022-07-29T05:59:37.900Z,101134.38
2022-07-29T06:02:04.318Z,101124.13
2022-07-29T06:04:30.738Z,101122.94
2022-07-29T06:06:57.106Z,101122.91
2022-07-29T06:09:23.922Z,101120.53
2022-07-29T06:11:50.376Z,101119.34
2022-07-29T06:14:17.123Z,101120.13
2022-07-29T06:16:43.732Z,101128.50
2022-07-29T06:19:10.203Z,101118.53
2022-07-29T06:21:36.534Z,101123.28
2022-07-29T06:24:08.450Z,101119.28
2022-07-29T06:26:39.219Z,101115.75
2022-07-29T06:29:06.219Z,101112.97
2022-07-29T06:31:32.585Z,101117.75
2022-07-29T06:33:58.948Z,101119.34
2022-07-29T06:36:25.664Z,101122.94
2022-07-29T06:38:52.272Z,101116.16
2022-07-29T06:41:20.079Z,101113.78
2022-07-29T06:43:52.091Z,101127.31
2022-07-29T06:46:21.197Z,101120.53
2022-07-29T06:48:47.793Z,101125.28
2022-07-29T06:51:14.228Z,101119.34
2022-07-29T06:53:40.546Z,101122.53
2022-07-29T06:56:26.970Z,101122.53
2022-07-29T06:58:53.359Z,101118.94
2022-07-29T07:01:19.789Z,101121.31
2022-07-29T07:03:46.144Z,101127.66
2022-07-29T07:06:15.089Z,101116.91
2022-07-29T07:08:41.655Z,101124.47
2022-07-29T07:11:08.893Z,101122.88
2022-07-29T07:13:35.251Z,101122.47
2022-07-29T07:16:03.215Z,101119.69
2022-07-29T07:18:29.558Z,101122.88
2022-07-29T07:20:55.903Z,101118.84
2022-07-29T07:23:22.325Z,101122.84
2022-07-29T07:25:48.689Z,101118.91
2022-07-29T07:28:15.071Z,101112.03
2022-07-29T07:30:41.457Z,101108.81
2022-07-29T07:33:07.828Z,101117.97
2022-07-29T07:35:34.162Z,101115.91
2022-07-29T07:38:00.589Z,101111.91
2022-07-29T07:40:26.958Z,101107.13
2022-07-29T07:42:53.294Z,101115.91
2022-07-29T07:45:19.638Z,101109.50
2022-07-29T07:47:46.014Z,101111.06
2022-07-29T07:50:18.011Z,101109.50
2022-07-29T07:52:45.178Z,101119.09
2022-07-29T07:55:11.550Z,101113.91
2022-07-29T07:57:37.952Z,101113.13
2022-07-29T08:00:04.322Z,101110.69
2022-07-29T08:02:30.709Z,101111.03
2022-07-29T08:04:57.104Z,101113.41
2022-07-29T08:07:23.450Z,101123.41
2022-07-29T08:09:49.845Z,101107.50
2022-07-29T08:12:16.228Z,101109.09
2022-07-29T08:14:42.632Z,101109.88
2022-07-29T08:17:09.000Z,101109.03
2022-07-29T08:19:35.393Z,101113.41
2022-07-29T08:22:01.765Z,101110.47
2022-07-29T08:24:28.091Z,101107.28
2022-07-29T08:26:54.452Z,101102.19
2022-07-29T08:29:20.766Z,101103.97
2022-07-29T08:31:47.182Z,101104.84
2022-07-29T08:34:13.585Z,101100.91
2022-07-29T08:36:39.952Z,101097.94
2022-07-29T08:39:06.385Z,101098.94
2022-07-29T08:41:32.759Z,101099.88
2022-07-29T08:43:59.175Z,101108.97
2022-07-29T08:46:25.553Z,101104.69
2022-07-29T08:48:51.972Z,101109.53
2022-07-29T08:51:18.354Z,101109.78
2022-07-29T08:53:44.688Z,101107.06
2022-07-29T08:56:11.114Z,101117.78
2022-07-29T08:58:38.291Z,101116.38
2022-07-29T09:01:05.030Z,101116.03
2022-07-29T09:03:33.973Z,101109.13
2022-07-29T09:06:00.355Z,101105.53
2022-07-29T09:08:26.722Z,101096.03
2022-07-29T09:10:53.079Z,101090.44
2022-07-29T09:13:19.468Z,101094.53
2022-07-29T09:15:45.828Z,101093.91
2022-07-29T09:18:20.442Z,101091.53
2022-07-29T09:20:57.454Z,101088.75
2022-07-29T09:23:24.601Z,101088.75
2022-07-29T09:25:51.362Z,101093.13
2022-07-29T09:28:17.824Z,101091.56
2022-07-29T09:30:44.158Z,101094.31
2022-07-29T09:33:10.495Z,101094.69
2022-07-29T09:35:36.863Z,101085.59
2022-07-29T09:38:03.207Z,101083.94
2022-07-29T09:40:29.586Z,101079.13
2022-07-29T09:42:55.932Z,101080.69
2022-07-29T09:45:22.299Z,101083.94
2022-07-29T09:47:48.649Z,101085.63
2022-07-29T09:50:15.056Z,101086.06
2022-07-29T09:52:41.461Z,101084.50
2022-07-29T09:55:07.860Z,101078.09
2022-07-29T09:57:34.201Z,101078.91
2022-07-29T10:00:00.530Z,101073.69
2022-07-29T10:02:26.897Z,101075.19
2022-07-29T10:04:53.239Z,101074.41
2022-07-29T10:07:19.610Z,101071.63
2022-07-29T10:09:48.736Z,101068.09
2022-07-29T10:12:15.100Z,101059.69
2022-07-29T10:14:41.451Z,101060.13
2022-07-29T10:17:07.816Z,101060.53
2022-07-29T10:19:34.158Z,101060.91
2022-07-29T10:22:00.830Z,101058.88
2022-07-29T10:24:27.363Z,101060.91
2022-07-29T10:26:53.699Z,101055.31
2022-07-29T10:29:20.066Z,101052.13
2022-07-29T10:31:47.872Z,101052.53
2022-07-29T10:34:14.265Z,101052.91
2022-07-29T10:36:40.628Z,101049.34
2022-07-29T10:39:09.681Z,101047.34
2022-07-29T10:41:44.045Z,101049.38
2022-07-29T10:44:16.102Z,101046.56
2022-07-29T10:46:43.884Z,101049.00
2022-07-29T10:49:10.681Z,101044.59
2022-07-29T10:51:37.741Z,101046.97
2022-07-29T10:54:04.069Z,101046.59
2022-07-29T10:56:30.398Z,101037.41
2022-07-29T10:58:56.768Z,101042.97
2022-07-29T11:01:37.701Z,101043.38
2022-07-29T11:04:05.403Z,101043.78
2022-07-29T11:06:34.494Z,101048.13
2022-07-29T11:09:00.958Z,101031.69
2022-07-29T11:11:29.674Z,101038.47
2022-07-29T11:13:56.959Z,101025.72
2022-07-29T11:16:25.130Z,101028.13
2022-07-29T11:18:51.925Z,101029.75
2022-07-29T11:21:23.325Z,101027.75
2022-07-29T11:23:52.716Z,101026.16
2022-07-29T11:26:19.121Z,101020.16
2022-07-29T11:28:45.502Z,101021.75
2022-07-29T11:31:11.933Z,101013.38
2022-07-29T11:33:56.233Z,101010.56
2022-07-29T11:36:27.972Z,101020.13
2022-07-29T11:38:54.903Z,101017.72
2022-07-29T11:41:21.252Z,101014.53
2022-07-29T11:43:47.571Z,101015.75
2022-07-29T11:46:17.093Z,101014.16
2022-07-29T11:48:52.080Z,101010.56
2022-07-29T11:51:18.601Z,101010.16
2022-07-29T11:53:44.967Z,101013.69
2022-07-29T11:56:19.813Z,101011.69
2022-07-29T11:58:52.049Z,101010.13
2022-07-29T12:01:18.729Z,101006.09
2022-07-29T12:03:45.151Z,101003.31
2022-07-29T12:06:11.614Z,101007.25
2022-07-29T12:08:39.396Z,101000.84
2022-07-29T12:11:06.289Z,101002.41
2022-07-29T12:13:37.669Z,101004.44
2022-07-29T12:16:04.465Z,101000.47
2022-07-29T12:18:30.865Z,101003.69
2022-07-29T12:20:57.369Z,101007.69
2022-07-29T12:23:23.842Z,100996.50
2022-07-29T12:25:58.561Z,100994.91
2022-07-29T12:28:27.663Z,101001.72
2022-07-29T12:30:55.305Z,100996.13
2022-07-29T12:33:22.556Z,100991.31
2022-07-29T12:36:03.511Z,100990.53
2022-07-29T12:38:33.503Z,100988.91
2022-07-29T12:40:59.938Z,100984.56
2022-07-29T12:43:26.298Z,100984.91
2022-07-29T12:45:52.674Z,100988.84
2022-07-29T12:48:19.052Z,100974.50
2022-07-29T12:50:45.372Z,100976.13
2022-07-29T12:53:11.742Z,100980.94
2022-07-29T12:55:38.096Z,100978.94
2022-07-29T12:58:04.446Z,100982.91
2022-07-29T13:00:31.909Z,100981.72
2022-07-29T13:02:58.391Z,100971.31
2022-07-29T13:05:24.745Z,100977.69
2022-07-29T13:07:55.725Z,100984.94
2022-07-29T13:10:24.244Z,100979.75
2022-07-29T13:12:51.025Z,100974.16
2022-07-29T13:15:17.412Z,100983.34
2022-07-29T13:17:43.762Z,100964.16
2022-07-29T13:20:14.452Z,100959.41
2022-07-29T13:22:40.792Z,100961.78
2022-07-29T13:25:07.163Z,100954.53
2022-07-29T13:27:33.740Z,100960.13
2022-07-29T13:30:00.169Z,100952.97
2022-07-29T13:32:28.772Z,100954.19
2022-07-29T13:34:55.494Z,100956.97
2022-07-29T13:37:21.865Z,100948.94
2022-07-29T13:39:53.222Z,100952.97
2022-07-29T13:42:19.863Z,100946.56
2022-07-29T13:44:46.224Z,100946.16
2022-07-29T13:47:12.620Z,100951.31
2022-07-29T13:49:38.970Z,100948.09
2022-07-29T13:52:05.314Z,100946.13
2022-07-29T13:54:31.672Z,100945.75
2022-07-29T13:56:58.015Z,100938.91
2022-07-29T13:59:24.375Z,100939.34
2022-07-29T14:01:50.794Z,100935.72
2022-07-29T14:04:17.188Z,100936.09
2022-07-29T14:06:43.586Z,100938.91
2022-07-29T14:09:10.043Z,100935.72
2022-07-29T14:11:36.403Z,100933.31
2022-07-29T14:14:02.787Z,100932.06
2022-07-29T14:16:29.170Z,100930.44
2022-07-29T14:18:55.589Z,100923.66
2022-07-29T14:21:21.937Z,100922.91
2022-07-29T14:23:48.274Z,100927.31
2022-07-29T14:26:21.786Z,100928.50
2022-07-29T14:28:50.653Z,100918.13
2022-07-29T14:31:17.056Z,100916.91
2022-07-29T14:33:43.466Z,100918.13
2022-07-29T14:36:12.754Z,100916.16
2022-07-29T14:38:39.108Z,100913.78
2022-07-29T14:41:05.451Z,100915.78
2022-07-29T14:43:31.803Z,100910.59
2022-07-29T14:46:02.930Z,100910.94
2022-07-29T14:48:31.652Z,100900.84
2022-07-29T14:51:00.844Z,100897.84
2022-07-29T14:53:30.676Z,100904.91
2022-07-29T14:56:06.047Z,100903.22
2022-07-29T14:58:51.626Z,100898.19
2022-07-29T15:01:19.374Z,100893.44
2022-07-29T15:03:45.773Z,100891.78
2022-07-29T15:06:12.136Z,100892.50
2022-07-29T15:08:38.486Z,100890.09
2022-07-29T15:11:04.858Z,100891.69
2022-07-29T15:13:33.989Z,100893.16
2022-07-29T15:16:00.550Z,100890.00
2022-07-29T15:18:26.906Z,100884.72
2022-07-29T15:20:53.267Z,100883.56
2022-07-29T15:23:20.528Z,100872.44
2022-07-29T15:25:46.880Z,100873.75
2022-07-29T15:28:13.260Z,100874.75
2022-07-29T15:30:39.666Z,100879.34
2022-07-29T15:33:06.064Z,100870.97
2022-07-29T15:35:32.406Z,100866.47
2022-07-29T15:38:01.573Z,100865.75
2022-07-29T15:40:27.925Z,100867.53
2022-07-29T15:42:54.261Z,100860.75
2022-07-29T15:45:20.604Z,100855.75
2022-07-29T15:47:46.969Z,100865.59
2022-07-29T15:50:13.333Z,100864.84
2022-07-29T15:52:39.693Z,100848.00
2022-07-29T15:55:07.572Z,100856.47
2022-07-29T15:57:33.938Z,100858.56
2022-07-29T16:00:00.285Z,100861.94
2022-07-29T16:02:26.616Z,100853.97
2022-07-29T16:04:52.936Z,100857.63
2022-07-29T16:07:19.278Z,100850.97
2022-07-29T16:09:50.871Z,100858.13
2022-07-29T16:12:20.149Z,100860.31
2022-07-29T16:14:46.577Z,100855.19
2022-07-29T16:17:14.484Z,100864.00
2022-07-29T16:19:41.388Z,100850.69
2022-07-29T16:22:07.742Z,100853.00
2022-07-29T16:24:34.103Z,100846.75
2022-07-29T16:27:00.991Z,100842.41
2022-07-29T16:29:27.523Z,100843.09
2022-07-29T16:31:56.661Z,100833.66
2022-07-29T16:34:23.037Z,100846.81
2022-07-29T16:36:52.171Z,100842.16
2022-07-29T16:39:18.519Z,100837.91
2022-07-29T16:41:44.844Z,100840.78
2022-07-29T16:44:11.227Z,100840.06
2022-07-29T16:46:39.626Z,100847.53
2022-07-29T16:49:07.946Z,100852.06
2022-07-29T16:51:34.324Z,100848.97
2022-07-29T16:54:00.695Z,100850.94
2022-07-29T16:56:27.046Z,100858.97
2022-07-29T16:58:53.391Z,100858.63
2022-07-29T17:01:19.822Z,100869.81
2022-07-29T17:03:46.278Z,100865.28
2022-07-29T17:06:12.680Z,100862.13
2022-07-29T17:08:39.019Z,100864.22
2022-07-29T17:11:05.412Z,100863.34
2022-07-29T17:13:31.749Z,100862.13
2022-07-29T17:16:00.594Z,100861.53
2022-07-29T17:18:27.284Z,100864.38
2022-07-29T17:20:53.629Z,100866.00
2022-07-29T17:23:19.980Z,100867.56
2022-07-29T17:25:46.325Z,100872.38
2022-07-29T17:28:12.673Z,100862.69
2022-07-29T17:30:39.026Z,100865.16
2022-07-29T17:33:05.373Z,100863.53
2022-07-29T17:35:31.724Z,100864.25
2022-07-29T17:37:58.092Z,100863.34
2022-07-29T17:40:24.429Z,100869.69
2022-07-29T17:42:50.777Z,100868.59
2022-07-29T17:45:17.185Z,100868.41
2022-07-29T17:47:43.531Z,100874.06
2022-07-29T17:50:09.896Z,100878.88
2022-07-29T17:52:36.224Z,100872.91
2022-07-29T17:55:05.386Z,100864.81
2022-07-29T17:57:31.742Z,100863.78
2022-07-29T17:59:58.104Z,100866.34
2022-07-29T18:02:25.179Z,100869.16
2022-07-29T18:04:53.014Z,100866.22
2022-07-29T18:07:19.365Z,100864.69
2022-07-29T18:09:45.721Z,100863.91
2022-07-29T18:12:12.080Z,100868.53
2022-07-29T18:14:38.440Z,100863.81
2022-07-29T18:17:04.787Z,100859.22
2022-07-29T18:19:31.107Z,100858.38
2022-07-29T18:22:03.194Z,100861.72
2022-07-29T18:24:31.865Z,100867.50
2022-07-29T18:26:58.473Z,100873.94
2022-07-29T18:29:25.001Z,100871.59
2022-07-29T18:31:51.385Z,100864.69
2022-07-29T18:34:17.775Z,100871.00
2022-07-29T18:36:44.156Z,100871.00
2022-07-29T18:39:10.540Z,100877.16
2022-07-29T18:41:50.005Z,100873.31
2022-07-29T18:44:17.216Z,100883.66
2022-07-29T18:46:47.312Z,100880.97
2022-07-29T18:49:14.506Z,100881.13
2022-07-29T18:51:40.973Z,100879.28
2022-07-29T18:54:07.365Z,100871.28
2022-07-29T18:56:33.747Z,100872.94
2022-07-29T18:59:00.094Z,100871.13
2022-07-29T19:01:31.648Z,100875.47
2022-07-29T19:03:58.567Z,100879.28
2022-07-29T19:06:25.907Z,100887.41
2022-07-29T19:08:52.460Z,100882.66
2022-07-29T19:11:18.890Z,100883.38
2022-07-29T19:13:45.229Z,100884.50
2022-07-29T19:16:11.684Z,100891.19
2022-07-29T19:18:38.158Z,100896.44
2022-07-29T19:21:04.503Z,100896.91
2022-07-29T19:23:30.854Z,100900.91
2022-07-29T19:26:20.705Z,100897.28
2022-07-29T19:28:48.302Z,100898.28
2022-07-29T19:31:15.618Z,100900.19
2022-07-29T19:33:42.009Z,100890.53
2022-07-29T19:36:08.364Z,100899.72
2022-07-29T19:38:34.697Z,100894.91
2022-07-29T19:41:01.048Z,100890.34
2022-07-29T19:43:50.378Z,100893.53
2022-07-29T19:46:14.092Z,100885.41
2022-07-29T19:48:40.545Z,100890.63
2022-07-29T19:51:06.949Z,100895.84
2022-07-29T19:53:33.307Z,100890.91
2022-07-29T19:55:59.643Z,100894.84
2022-07-29T19:58:27.017Z,100895.25
2022-07-29T20:00:53.540Z,100894.78
2022-07-29T20:03:20.754Z,100890.03
2022-07-29T20:05:47.893Z,100892.94
2022-07-29T20:08:14.835Z,100902.78
2022-07-29T20:10:41.207Z,100893.09
2022-07-29T20:13:07.581Z,100893.91
2022-07-29T20:15:33.957Z,100909.66
2022-07-29T20:18:00.347Z,100903.97
2022-07-29T20:20:26.712Z,100899.78
2022-07-29T20:22:53.085Z,100905.66
2022-07-29T20:25:19.480Z,100898.09
2022-07-29T20:27:45.805Z,100897.03
2022-07-29T20:30:13.045Z,100903.84
2022-07-29T20:32:39.409Z,100889.69
2022-07-29T20:35:05.764Z,100892.97
2022-07-29T20:37:32.137Z,100889.34
2022-07-29T20:39:58.496Z,100893.38
2022-07-29T20:42:24.854Z,100891.25
2022-07-29T20:44:51.215Z,100892.66
2022-07-29T20:47:17.591Z,100888.88
2022-07-29T20:49:43.914Z,100897.16
2022-07-29T20:52:10.281Z,100892.56
2022-07-29T20:54:36.629Z,100892.88
2022-07-29T20:57:03.385Z,100891.19
2022-07-29T20:59:30.147Z,100889.13
2022-07-29T21:01:56.557Z,100887.13
2022-07-29T21:04:23.003Z,100881.34
2022-07-29T21:06:57.493Z,100887.06
2022-07-29T21:09:24.101Z,100880.25
2022-07-29T21:11:50.516Z,100872.19
2022-07-29T21:14:16.869Z,100877.13
2022-07-29T21:16:43.246Z,100882.56
2022-07-29T21:19:09.626Z,100881.47
2022-07-29T21:21:35.974Z,100879.38
2022-07-29T21:24:02.322Z,100875.50
2022-07-29T21:26:28.690Z,100874.06
2022-07-29T21:28:55.398Z,100874.84
2022-07-29T21:31:21.777Z,100876.13
2022-07-29T21:33:48.131Z,100872.97
2022-07-29T21:36:47.304Z,100870.16
2022-07-29T21:39:00.838Z,100876.13
2022-07-29T21:41:27.175Z,100873.00
2022-07-29T21:43:53.549Z,100876.63
2022-07-29T21:46:21.440Z,100873.09
2022-07-29T21:48:50.933Z,100872.88
2022-07-29T21:51:17.309Z,100868.59
2022-07-29T21:53:43.684Z,100871.75
2022-07-29T21:56:14.467Z,100866.94
2022-07-29T21:58:41.441Z,100871.81
2022-07-29T22:01:07.855Z,100874.78
2022-07-29T22:03:34.199Z,100874.50
2022-07-29T22:06:00.560Z,100867.88
2022-07-29T22:08:26.900Z,100874.28
2022-07-29T22:10:53.446Z,100869.56
2022-07-29T22:13:19.801Z,100864.94
2022-07-29T22:15:47.303Z,100870.34
2022-07-29T22:18:13.773Z,100864.00
2022-07-29T22:20:47.487Z,100863.09
2022-07-29T22:23:13.848Z,100855.66
2022-07-29T22:25:40.177Z,100856.34
2022-07-29T22:28:06.543Z,100859.16
2022-07-29T22:30:32.979Z,100862.78
2022-07-29T22:32:59.425Z,100864.00
2022-07-29T22:35:25.769Z,100853.97
2022-07-29T22:37:52.094Z,100851.97
2022-07-29T22:40:19.316Z,100852.47
2022-07-29T22:42:45.665Z,100836.78
2022-07-29T22:45:12.054Z,100842.34
2022-07-29T22:47:46.513Z,100843.28
2022-07-29T22:50:14.893Z,100841.13
2022-07-29T22:52:41.212Z,100853.50
2022-07-29T22:55:07.561Z,100844.88
2022-07-29T22:57:33.922Z,100848.13
2022-07-29T23:00:00.354Z,100846.72
2022-07-29T23:02:26.783Z,100843.50
2022-07-29T23:04:53.153Z,100839.25
2022-07-29T23:07:19.609Z,100844.31
2022-07-29T23:09:45.981Z,100843.84
2022-07-29T23:12:12.332Z,100839.19
2022-07-29T23:14:38.697Z,100841.03
2022-07-29T23:17:05.345Z,100835.75
2022-07-29T23:19:31.781Z,100837.72
2022-07-29T23:21:58.129Z,100827.00
2022-07-29T23:24:24.461Z,100828.56
2022-07-29T23:26:53.602Z,100838.69
2022-07-29T23:29:20.009Z,100844.09
2022-07-29T23:31:47.920Z,100846.34
2022-07-29T23:34:14.681Z,100843.88
2022-07-29T23:36:41.049Z,100837.06
2022-07-29T23:39:07.396Z,100841.16
2022-07-29T23:41:33.758Z,100836.31
2022-07-29T23:44:02.895Z,100841.81
2022-07-29T23:46:29.304Z,100838.47
2022-07-29T23:48:55.722Z,100836.09
2022-07-29T23:51:22.122Z,100827.25
2022-07-29T23:53:53.785Z,100821.94
2022-07-29T23:56:20.608Z,100826.63
2022-07-29T23:58:46.990Z,100833.78
